Time;durP1;ratioP1;P1;durP2;ratioP2;P2;SDS_P1;SDS_P2;PMS_P1;PMS_P2;Temp;Humidity;BMP_temperature;BMP_pressure;BME280_temperature;BME280_humidity;BME280_pressure;Samples;Min_cycle;Max_cycle;Signal;HPM_P1;HPM_P2
2023/07/15 00:02:10;;;;;;;;;;;;;;;16.63;48.58;100827.25;105314;1286;72353;-82
2023/07/15 00:04:56;;;;;;;;;;;;;;;16.59;48.58;100831.74;105218;1287;59274;-82
2023/07/15 00:07:42;;;;;;;;;;;;;;;16.56;48.59;100831.52;105384;1286;61235;-82
2023/07/15 00:10:29;;;;;;;;;;;;;;;16.54;48.68;100826.00;105380;1286;73444;-82
2023/07/15 00:13:16;;;;;;;;;;;;;;;16.51;48.63;100824.73;105267;1291;68550;-82
2023/07/15 00:16:02;;;;;;;;;;;;;;;16.46;48.80;100823.02;105313;1289;74956;-82
2023/07/15 00:18:48;;;;;;;;;;;;;;;16.44;48.86;100825.00;105357;1286;61185;-82
2023/07/15 00:21:35;;;;;;;;;;;;;;;16.39;49.06;100828.48;105381;1286;61503;-82
2023/07/15 00:24:21;;;;;;;;;;;;;;;16.37;48.96;100824.73;105236;1286;74358;-82
2023/07/15 00:27:08;;;;;;;;;;;;;;;16.35;49.05;100819.92;105449;1289;67268;-82
2023/07/15 00:29:55;;;;;;;;;;;;;;;16.34;49.22;100825.72;105380;1286;71179;-82
2023/07/15 00:32:45;;;;;;;;;;;;;;;16.36;49.24;100826.70;105300;1291;61799;-82
2023/07/15 00:35:32;;;;;;;;;;;;;;;16.35;49.25;100830.91;105430;1287;61215;-82
2023/07/15 00:38:18;;;;;;;;;;;;;;;16.31;49.15;100826.68;105372;1288;73429;-83
2023/07/15 00:41:10;;;;;;;;;;;;;;;16.26;49.22;100822.52;105203;1291;67445;-83
2023/07/15 00:43:59;;;;;;;;;;;;;;;16.25;49.37;100819.60;105283;1291;76378;-83
2023/07/15 00:47:14;;;;;;;;;;;;;;;16.24;49.51;100820.15;105338;1288;61214;-83
2023/07/15 00:50:01;;;;;;;;;;;;;;;16.19;49.56;100816.84;104881;1291;60901;-83
2023/07/15 00:52:47;;;;;;;;;;;;;;;16.18;49.54;100810.46;104842;1295;76324;-83
2023/07/15 00:55:34;;;;;;;;;;;;;;;16.20;49.65;100804.82;104931;1291;68659;-83
2023/07/15 00:58:20;;;;;;;;;;;;;;;16.21;49.72;100800.26;104776;1292;71979;-83
2023/07/15 01:01:09;;;;;;;;;;;;;;;16.20;49.74;100798.56;104942;1294;59567;-83
2023/07/15 01:03:56;;;;;;;;;;;;;;;16.18;49.88;100798.63;104971;1292;61282;-83
2023/07/15 01:06:45;;;;;;;;;;;;;;;16.17;49.93;100796.39;104865;1291;73684;-83
2023/07/15 01:09:32;;;;;;;;;;;;;;;16.16;50.03;100799.23;104892;1292;67325;-83
2023/07/15 01:12:18;;;;;;;;;;;;;;;16.14;50.08;100799.45;104875;1292;72090;-83
2023/07/15 01:15:05;;;;;;;;;;;;;;;16.15;50.08;100796.13;104807;1297;61092;-83
2023/07/15 01:17:51;;;;;;;;;;;;;;;16.16;50.07;100793.48;104925;1291;60328;-83
2023/07/15 01:20:37;;;;;;;;;;;;;;;16.17;50.17;100790.84;104918;1295;74157;-83
2023/07/15 01:23:27;;;;;;;;;;;;;;;16.16;50.32;100790.02;104783;1292;67518;-83
2023/07/15 01:26:13;;;;;;;;;;;;;;;16.10;50.32;100794.78;105020;1288;71550;-83
2023/07/15 01:28:59;;;;;;;;;;;;;;;16.07;50.35;100789.85;105329;1287;61275;-83
2023/07/15 01:31:45;;;;;;;;;;;;;;;16.08;50.46;100789.63;105260;1287;61509;-83
2023/07/15 01:34:32;;;;;;;;;;;;;;;16.09;50.43;100788.73;105346;1286;73170;-83
2023/07/15 01:37:18;;;;;;;;;;;;;;;16.10;50.56;100786.63;105437;1287;67154;-83
2023/07/15 01:40:06;;;;;;;;;;;;;;;16.10;50.56;100796.87;97928;1286;10002668;-83
2023/07/15 01:42:52;;;;;;;;;;;;;;;16.08;50.60;100793.11;105176;1287;61187;-83
2023/07/15 01:45:39;;;;;;;;;;;;;;;16.04;50.73;100790.67;105285;1289;73258;-83
2023/07/15 01:48:25;;;;;;;;;;;;;;;16.01;50.74;100789.88;105314;1286;72413;-83
2023/07/15 01:51:11;;;;;;;;;;;;;;;15.99;50.69;100792.05;105321;1286;75746;-83
2023/07/15 01:53:58;;;;;;;;;;;;;;;15.96;50.74;100781.90;105302;1286;59345;-83
2023/07/15 01:56:45;;;;;;;;;;;;;;;15.94;50.81;100777.96;105366;1288;59919;-83
2023/07/15 01:59:32;;;;;;;;;;;;;;;15.90;50.87;100777.40;105292;1286;73350;-83
2023/07/15 02:02:18;;;;;;;;;;;;;;;15.91;50.98;100777.56;105204;1287;67499;-83
2023/07/15 02:05:04;;;;;;;;;;;;;;;15.91;51.05;100776.87;105342;1290;73829;-83
2023/07/15 02:07:51;;;;;;;;;;;;;;;15.91;51.11;100774.59;105296;1287;61262;-83
2023/07/15 02:10:37;;;;;;;;;;;;;;;15.91;51.11;100775.81;105370;1286;61966;-83
2023/07/15 02:13:24;;;;;;;;;;;;;;;15.93;51.16;100775.39;105345;1287;76012;-83
2023/07/15 02:16:10;;;;;;;;;;;;;;;15.94;51.12;100771.53;105276;1287;70105;-83
2023/07/15 02:18:56;;;;;;;;;;;;;;;15.89;51.14;100767.36;105314;1286;74086;-83
2023/07/15 02:21:42;;;;;;;;;;;;;;;15.82;51.29;100767.92;105231;1287;59190;-83
2023/07/15 02:24:29;;;;;;;;;;;;;;;15.80;51.35;100764.36;105337;1289;59292;-83
2023/07/15 02:27:16;;;;;;;;;;;;;;;15.80;51.39;100760.88;105335;1291;73416;-83
2023/07/15 02:30:05;;;;;;;;;;;;;;;15.79;51.30;100756.23;105275;1291;67272;-83
2023/07/15 02:32:51;;;;;;;;;;;;;;;15.82;51.48;100753.51;105374;1286;73335;-83
2023/07/15 02:35:38;;;;;;;;;;;;;;;15.84;51.52;100751.88;105300;1286;61145;-83
2023/07/15 02:38:25;;;;;;;;;;;;;;;15.86;51.61;100749.38;105295;1290;63210;-83
2023/07/15 02:41:12;;;;;;;;;;;;;;;15.88;51.63;100750.70;105223;1288;73482;-83
2023/07/15 02:43:58;;;;;;;;;;;;;;;15.92;51.65;100748.66;105370;1286;67199;-83
2023/07/15 02:46:44;;;;;;;;;;;;;;;15.93;51.78;100747.77;105240;1286;71186;-83
2023/07/15 02:49:30;;;;;;;;;;;;;;;15.96;51.84;100740.52;105341;1286;61133;-83
2023/07/15 02:52:16;;;;;;;;;;;;;;;15.97;51.82;100738.05;105292;1286;61289;-83
2023/07/15 02:55:03;;;;;;;;;;;;;;;15.99;51.84;100736.56;105315;1286;74610;-83
2023/07/15 02:57:49;;;;;;;;;;;;;;;16.03;51.96;100739.02;105350;1286;67993;-83
2023/07/15 03:00:39;;;;;;;;;;;;;;;16.08;52.00;100742.50;105227;1287;72369;-83
2023/07/15 03:03:25;;;;;;;;;;;;;;;16.12;52.02;100742.34;105187;1288;61292;-83
2023/07/15 03:06:12;;;;;;;;;;;;;;;16.14;52.04;100741.19;105375;1286;59352;-83
2023/07/15 03:08:58;;;;;;;;;;;;;;;16.14;52.10;100740.50;105376;1290;73514;-83
2023/07/15 03:11:44;;;;;;;;;;;;;;;16.16;52.17;100740.08;105317;1287;68818;-83
2023/07/15 03:14:30;;;;;;;;;;;;;;;16.16;52.19;100741.65;105327;1286;73020;-83
2023/07/15 03:17:17;;;;;;;;;;;;;;;16.17;52.21;100741.10;105249;1287;59387;-83
2023/07/15 03:20:09;;;;;;;;;;;;;;;16.19;52.21;100738.23;105214;1290;61362;-83
2023/07/15 03:22:56;;;;;;;;;;;;;;;16.23;52.27;100738.45;105168;1287;75808;-83
2023/07/15 03:25:42;;;;;;;;;;;;;;;16.26;52.33;100733.63;105317;1286;70024;-83
2023/07/15 03:28:28;;;;;;;;;;;;;;;16.28;52.33;100733.23;105338;1286;74032;-83
2023/07/15 03:31:14;;;;;;;;;;;;;;;16.24;52.41;100732.13;105217;1286;60663;-83
2023/07/15 03:34:00;;;;;;;;;;;;;;;16.25;52.55;100731.59;105324;1289;59272;-83
2023/07/15 03:36:46;;;;;;;;;;;;;;;16.26;52.51;100731.55;105108;1286;73427;-83
2023/07/15 03:39:32;;;;;;;;;;;;;;;16.25;52.62;100731.40;105265;1291;68073;-83
2023/07/15 03:42:18;;;;;;;;;;;;;;;16.25;52.63;100727.92;105285;1286;71736;-83
2023/07/15 03:45:05;;;;;;;;;;;;;;;16.26;52.73;100724.94;105240;1288;61095;-83
2023/07/15 03:47:53;;;;;;;;;;;;;;;16.26;52.75;100725.28;105387;1289;61098;-83
2023/07/15 03:50:39;;;;;;;;;;;;;;;16.28;52.86;100723.83;105435;1286;73876;-83
2023/07/15 03:53:25;;;;;;;;;;;;;;;16.36;52.88;100717.24;105354;1286;67444;-84
2023/07/15 03:56:11;;;;;;;;;;;;;;;16.45;52.85;100716.38;105318;1286;71334;-83
2023/07/15 03:58:57;;;;;;;;;;;;;;;16.55;52.89;100711.30;105372;1288;61358;-83
2023/07/15 04:01:43;;;;;;;;;;;;;;;16.62;53.04;100706.49;105306;1286;59963;-83
2023/07/15 04:04:29;;;;;;;;;;;;;;;16.71;52.89;100705.27;105405;1285;73116;-83
2023/07/15 04:07:16;;;;;;;;;;;;;;;16.78;52.83;100703.23;105436;1286;67226;-83
2023/07/15 04:10:02;;;;;;;;;;;;;;;16.88;52.90;100705.45;105423;1286;71321;-83
2023/07/15 04:12:48;;;;;;;;;;;;;;;16.97;53.05;100702.13;105267;1286;61266;-83
2023/07/15 04:15:34;;;;;;;;;;;;;;;17.06;52.96;100694.42;105181;1286;61215;-83
2023/07/15 04:18:21;;;;;;;;;;;;;;;17.15;52.97;100693.50;105280;1286;73870;-84
2023/07/15 04:21:07;;;;;;;;;;;;;;;17.26;52.91;100693.23;105242;1286;67232;-84
2023/07/15 04:23:54;;;;;;;;;;;;;;;17.35;52.97;100698.06;105302;1287;71287;-83
2023/07/15 04:26:41;;;;;;;;;;;;;;;17.43;53.06;100702.41;105268;1286;61189;-83
2023/07/15 04:29:28;;;;;;;;;;;;;;;17.52;53.09;100703.09;105272;1286;59515;-83
2023/07/15 04:32:15;;;;;;;;;;;;;;;17.60;53.06;100702.38;105486;1288;72387;-84
2023/07/15 04:35:02;;;;;;;;;;;;;;;17.69;53.08;100707.24;105388;1288;68862;-83
2023/07/15 04:37:50;;;;;;;;;;;;;;;17.74;53.14;100712.39;105252;1286;71066;-84
2023/07/15 04:40:37;;;;;;;;;;;;;;;17.82;53.15;100709.42;105261;1286;61084;-84
2023/07/15 04:43:23;;;;;;;;;;;;;;;17.91;53.00;100709.38;105404;1286;60941;-84
2023/07/15 04:46:09;;;;;;;;;;;;;;;18.00;53.24;100714.76;105321;1288;73175;-84
2023/07/15 04:48:55;;;;;;;;;;;;;;;18.07;53.25;100714.61;105311;1290;68341;-83
2023/07/15 04:51:41;;;;;;;;;;;;;;;18.12;53.44;100713.84;105317;1286;73620;-84
2023/07/15 04:54:27;;;;;;;;;;;;;;;18.19;53.49;100707.08;105254;1287;61158;-84
2023/07/15 04:57:16;;;;;;;;;;;;;;;18.25;53.44;100697.68;105254;1286;59473;-84
2023/07/15 05:00:02;;;;;;;;;;;;;;;18.33;53.52;100695.38;105342;1286;74172;-84
2023/07/15 05:02:49;;;;;;;;;;;;;;;18.49;53.50;100699.00;105279;1285;67553;-84
2023/07/15 05:05:35;;;;;;;;;;;;;;;18.72;53.47;100700.55;105355;1286;71261;-84
2023/07/15 05:08:22;;;;;;;;;;;;;;;18.98;53.47;100694.91;105437;1290;61253;-84
2023/07/15 05:11:08;;;;;;;;;;;;;;;19.22;53.38;100692.78;105444;1288;60109;-84
2023/07/15 05:13:55;;;;;;;;;;;;;;;19.41;53.08;100694.45;105297;1287;73475;-84
2023/07/15 05:16:42;;;;;;;;;;;;;;;19.53;53.27;100697.00;105378;1287;70016;-84
2023/07/15 05:19:28;;;;;;;;;;;;;;;19.66;53.05;100700.70;105397;1285;71102;-84
2023/07/15 05:22:14;;;;;;;;;;;;;;;19.75;53.19;100694.05;105246;1288;61176;-84
2023/07/15 05:25:00;;;;;;;;;;;;;;;19.79;53.02;100693.30;105329;1285;61141;-84
2023/07/15 05:27:46;;;;;;;;;;;;;;;19.88;53.12;100692.14;105361;1285;74354;-84
2023/07/15 05:30:34;;;;;;;;;;;;;;;20.36;53.25;100690.56;105316;1286;67230;-84
2023/07/15 05:33:20;;;;;;;;;;;;;;;21.09;53.08;100684.66;105426;1286;74165;-84
2023/07/15 05:36:07;;;;;;;;;;;;;;;21.80;52.73;100683.20;105357;1285;61236;-84
2023/07/15 05:38:54;;;;;;;;;;;;;;;22.47;52.68;100685.59;106416;1287;58964;-85
2023/07/15 05:41:40;;;;;;;;;;;;;;;23.12;52.49;100685.54;105574;1285;74979;-84
2023/07/15 05:44:26;;;;;;;;;;;;;;;23.76;51.91;100685.53;105483;1290;68647;-84
2023/07/15 05:47:12;;;;;;;;;;;;;;;24.31;51.53;100684.79;105336;1287;71388;-84
2023/07/15 05:49:58;;;;;;;;;;;;;;;24.99;51.29;100690.50;105436;1287;61606;-84
2023/07/15 05:52:44;;;;;;;;;;;;;;;25.69;51.02;100689.86;105445;1285;61118;-85
2023/07/15 05:55:34;;;;;;;;;;;;;;;26.31;50.69;100688.16;105429;1285;73720;-84
2023/07/15 05:58:20;;;;;;;;;;;;;;;26.89;50.37;100690.77;105345;1286;67268;-84
2023/07/15 06:01:06;;;;;;;;;;;;;;;27.25;50.05;100686.13;105377;1288;71640;-84
2023/07/15 06:03:52;;;;;;;;;;;;;;;27.62;49.96;100681.71;105490;1285;59681;-84
2023/07/15 06:06:38;;;;;;;;;;;;;;;27.98;49.67;100680.86;105395;1285;61486;-84
2023/07/15 06:09:24;;;;;;;;;;;;;;;28.32;49.46;100680.88;105356;1285;76518;-84
2023/07/15 06:12:11;;;;;;;;;;;;;;;28.58;48.82;100681.75;105456;1290;67543;-84
2023/07/15 06:14:57;;;;;;;;;;;;;;;28.80;48.52;100670.83;105400;1286;71879;-85
2023/07/15 06:17:43;;;;;;;;;;;;;;;29.10;48.35;100668.44;105404;1286;61171;-84
2023/07/15 06:20:29;;;;;;;;;;;;;;;29.48;48.08;100671.41;105518;1286;61109;-84
2023/07/15 06:23:15;;;;;;;;;;;;;;;29.92;47.87;100671.57;105515;1286;75052;-84
2023/07/15 06:26:02;;;;;;;;;;;;;;;30.41;47.66;100670.05;105459;1286;68548;-84
2023/07/15 06:28:48;;;;;;;;;;;;;;;30.90;47.17;100673.32;105562;1285;75840;-84
2023/07/15 06:31:34;;;;;;;;;;;;;;;31.35;46.77;100674.80;105447;1288;61269;-84
2023/07/15 06:34:20;;;;;;;;;;;;;;;31.71;46.26;100672.61;105451;1286;59196;-84
2023/07/15 06:37:06;;;;;;;;;;;;;;;32.10;46.02;100671.34;105515;1286;75340;-83
2023/07/15 06:39:52;;;;;;;;;;;;;;;32.70;45.80;100671.35;105558;1287;67645;-84
2023/07/15 06:42:38;;;;;;;;;;;;;;;33.24;45.39;100666.79;105451;1286;71178;-84
2023/07/15 06:45:31;;;;;;;;;;;;;;;33.88;45.03;100664.90;105481;1288;61382;-84
2023/07/15 06:48:17;;;;;;;;;;;;;;;34.52;44.72;100662.10;105505;1286;61318;-84
2023/07/15 06:51:03;;;;;;;;;;;;;;;34.92;44.24;100661.96;105412;1288;73771;-84
2023/07/15 06:53:49;;;;;;;;;;;;;;;35.16;44.12;100659.04;98173;1285;10002503;-83
2023/07/15 06:56:35;;;;;;;;;;;;;;;35.26;43.84;100658.73;105493;1289;61145;-84
2023/07/15 06:59:21;;;;;;;;;;;;;;;35.42;43.61;100658.23;105406;1288;59251;-84
2023/07/15 07:02:08;;;;;;;;;;;;;;;35.82;43.06;100656.05;105491;1286;73303;-84
2023/07/15 07:04:54;;;;;;;;;;;;;;;36.43;42.27;100657.87;105184;1291;351195;-84
2023/07/15 07:07:40;;;;;;;;;;;;;;;37.14;41.67;100656.90;105481;1290;74339;-83
2023/07/15 07:10:26;;;;;;;;;;;;;;;37.96;41.16;100651.58;105513;1286;59950;-84
2023/07/15 07:13:12;;;;;;;;;;;;;;;38.75;40.70;100648.88;105499;1286;61703;-84
2023/07/15 07:15:59;;;;;;;;;;;;;;;39.34;39.93;100647.45;105365;1286;75042;-83
2023/07/15 07:18:45;;;;;;;;;;;;;;;39.88;39.54;100642.90;105386;1286;67212;-83
2023/07/15 07:21:31;;;;;;;;;;;;;;;40.36;39.31;100639.64;105374;1286;71115;-84
2023/07/15 07:24:17;;;;;;;;;;;;;;;40.79;39.18;100641.27;105399;1286;61154;-84
2023/07/15 07:27:04;;;;;;;;;;;;;;;40.70;39.08;100632.62;105397;1286;61271;-83
2023/07/15 07:29:50;;;;;;;;;;;;;;;40.76;38.97;100631.23;105381;1291;75980;-84
2023/07/15 07:32:36;;;;;;;;;;;;;;;41.22;38.29;100629.83;105481;1286;67384;-84
2023/07/15 07:35:22;;;;;;;;;;;;;;;40.62;37.90;100631.32;105396;1286;71179;-84
2023/07/15 07:38:08;;;;;;;;;;;;;;;39.95;37.90;100636.59;105471;1285;61178;-84
2023/07/15 07:40:54;;;;;;;;;;;;;;;40.06;37.26;100633.77;105510;1286;61359;-84
2023/07/15 07:43:41;;;;;;;;;;;;;;;39.66;36.91;100634.00;105553;1286;73172;-84
2023/07/15 07:46:27;;;;;;;;;;;;;;;39.22;36.68;100629.66;105515;1286;69096;-84
2023/07/15 07:49:13;;;;;;;;;;;;;;;38.87;36.55;100630.03;105460;1287;71283;-84
2023/07/15 07:51:59;;;;;;;;;;;;;;;39.96;35.97;100629.69;105534;1285;61137;-86
2023/07/15 07:54:45;;;;;;;;;;;;;;;41.58;34.96;100624.36;105418;1287;61273;-83
2023/07/15 07:57:31;;;;;;;;;;;;;;;43.07;34.12;100624.34;105473;1285;76007;-84
2023/07/15 08:00:18;;;;;;;;;;;;;;;44.35;33.53;100625.27;105458;1285;70036;-84
2023/07/15 08:03:04;;;;;;;;;;;;;;;45.44;33.13;100620.27;105477;1285;71155;-84
2023/07/15 08:05:50;;;;;;;;;;;;;;;45.48;32.38;100621.89;105583;1285;61273;-84
2023/07/15 08:08:36;;;;;;;;;;;;;;;45.26;32.49;100619.20;105495;1285;61604;-84
2023/07/15 08:11:23;;;;;;;;;;;;;;;45.61;32.33;100614.41;105488;1285;73396;-84
2023/07/15 08:14:09;;;;;;;;;;;;;;;46.53;32.08;100613.55;105546;1286;68505;-84
2023/07/15 08:16:55;;;;;;;;;;;;;;;47.44;31.54;100614.73;105547;1286;62666;-84
2023/07/15 08:19:41;;;;;;;;;;;;;;;48.29;30.85;100613.06;105534;1285;61163;-85
2023/07/15 08:22:27;;;;;;;;;;;;;;;48.80;30.57;100605.84;105492;1285;61230;-84
2023/07/15 08:25:13;;;;;;;;;;;;;;;49.60;30.13;100604.86;105492;1287;64575;-84
2023/07/15 08:27:59;;;;;;;;;;;;;;;50.15;30.00;100602.92;105404;1286;59918;-85
2023/07/15 08:30:45;;;;;;;;;;;;;;;50.62;29.56;100602.22;105593;1289;71513;-84
2023/07/15 08:33:31;;;;;;;;;;;;;;;50.93;28.95;100603.45;105603;1287;59586;-84
2023/07/15 08:36:17;;;;;;;;;;;;;;;51.18;28.63;100600.23;105654;1288;61271;-84
2023/07/15 08:39:03;;;;;;;;;;;;;;;51.49;28.33;100600.74;105487;1286;65446;-84
2023/07/15 08:41:53;;;;;;;;;;;;;;;51.77;27.91;100608.68;105585;1286;61324;-84
2023/07/15 08:44:39;;;;;;;;;;;;;;;51.96;27.30;100609.17;105524;1286;64159;-84
2023/07/15 08:47:25;;;;;;;;;;;;;;;51.50;27.03;100603.52;105508;1286;61039;-84
2023/07/15 08:50:12;;;;;;;;;;;;;;;51.37;26.58;100598.02;105618;1286;61142;-84
2023/07/15 08:52:59;;;;;;;;;;;;;;;51.53;25.96;100598.82;105480;1286;64977;-84
2023/07/15 08:55:46;;;;;;;;;;;;;;;51.80;25.49;100600.81;105474;1286;60431;-84
2023/07/15 08:58:32;;;;;;;;;;;;;;;51.82;24.87;100597.98;105462;1286;62467;-84
2023/07/15 09:01:18;;;;;;;;;;;;;;;51.74;24.70;100596.93;105488;1286;61434;-84
2023/07/15 09:04:04;;;;;;;;;;;;;;;50.53;24.23;100597.61;105500;1286;61151;-84
2023/07/15 09:06:52;;;;;;;;;;;;;;;47.79;24.65;100588.19;105550;1286;65818;-84
2023/07/15 09:09:39;;;;;;;;;;;;;;;45.12;24.74;100577.30;106312;1286;67519;-84
2023/07/15 09:12:27;;;;;;;;;;;;;;;43.25;24.44;100575.65;105527;1286;71335;-83
2023/07/15 09:15:13;;;;;;;;;;;;;;;41.48;24.47;100567.70;105414;1289;61187;-83
2023/07/15 09:17:59;;;;;;;;;;;;;;;40.16;24.51;100570.77;105561;1286;61123;-83
2023/07/15 09:20:46;;;;;;;;;;;;;;;39.04;24.38;100567.52;105546;1287;74333;-83
2023/07/15 09:23:32;;;;;;;;;;;;;;;38.05;24.32;100557.13;105447;1288;67164;-83
2023/07/15 09:26:18;;;;;;;;;;;;;;;37.20;24.27;100549.21;105535;1286;71438;-83
2023/07/15 09:29:04;;;;;;;;;;;;;;;36.35;24.25;100543.70;105375;1288;61602;-82
2023/07/15 09:31:50;;;;;;;;;;;;;;;35.57;24.39;100549.56;105573;1287;59287;-82
2023/07/15 09:34:40;;;;;;;;;;;;;;;34.89;24.51;100541.80;105473;1287;74513;-82
2023/07/15 09:37:30;;;;;;;;;;;;;;;34.35;24.65;100538.30;105526;1286;67115;-82
2023/07/15 09:40:16;;;;;;;;;;;;;;;33.84;24.89;100538.33;105517;1288;72532;-82
2023/07/15 09:43:02;;;;;;;;;;;;;;;33.48;25.08;100532.17;105363;1288;61264;-82
2023/07/15 09:45:48;;;;;;;;;;;;;;;33.13;25.00;100527.98;105461;1288;59153;-83
2023/07/15 09:48:34;;;;;;;;;;;;;;;32.73;25.02;100532.27;105545;1286;73293;-82
2023/07/15 09:51:21;;;;;;;;;;;;;;;32.40;25.23;100532.86;105494;1288;67464;-84
2023/07/15 09:54:08;;;;;;;;;;;;;;;32.20;25.45;100529.17;105505;1290;70753;-85
2023/07/15 09:56:58;;;;;;;;;;;;;;;31.97;25.56;100528.65;105414;1287;61280;-85
2023/07/15 09:59:46;;;;;;;;;;;;;;;31.77;25.77;100522.09;105610;1287;61343;-84
2023/07/15 10:02:35;;;;;;;;;;;;;;;31.56;25.74;100518.24;105555;1286;75140;-85
2023/07/15 10:05:22;;;;;;;;;;;;;;;31.35;26.00;100517.30;105616;1285;67620;-84
2023/07/15 10:08:08;;;;;;;;;;;;;;;31.21;26.11;100517.70;105444;1291;71218;-85
2023/07/15 10:10:54;;;;;;;;;;;;;;;31.15;26.48;100513.90;105533;1286;61062;-85
2023/07/15 10:13:41;;;;;;;;;;;;;;;31.09;26.51;100509.35;105495;1285;61112;-85
2023/07/15 10:16:27;;;;;;;;;;;;;;;31.01;26.44;100503.98;105463;1286;73174;-85
2023/07/15 10:19:32;;;;;;;;;;;;;;;30.94;26.52;100509.64;105575;1286;67301;-85
2023/07/15 10:22:21;;;;;;;;;;;;;;;30.85;26.69;100502.92;105571;1289;71216;-85
2023/07/15 10:25:09;;;;;;;;;;;;;;;30.76;26.92;100502.56;105629;1285;61285;-85
2023/07/15 10:28:08;;;;;;;;;;;;;;;30.72;27.11;100507.27;105397;1285;59191;-84
2023/07/15 10:31:11;;;;;;;;;;;;;;;30.73;27.34;100506.98;105521;1287;73260;-84
2023/07/15 10:33:58;;;;;;;;;;;;;;;30.76;27.24;100504.50;105373;1288;69147;-84
2023/07/15 10:36:47;;;;;;;;;;;;;;;30.74;27.30;100506.33;105410;1287;71844;-84
2023/07/15 10:39:33;;;;;;;;;;;;;;;30.74;27.63;100506.35;105690;1290;61149;-84
2023/07/15 10:42:19;;;;;;;;;;;;;;;30.77;27.77;100501.60;105652;1286;61503;-84
2023/07/15 10:45:05;;;;;;;;;;;;;;;30.77;27.77;100497.52;105608;1289;73216;-84
2023/07/15 10:47:51;;;;;;;;;;;;;;;30.74;27.78;100492.27;105438;1285;69232;-84
2023/07/15 10:50:38;;;;;;;;;;;;;;;30.77;27.77;100491.48;105485;1291;71412;-84
2023/07/15 10:53:32;;;;;;;;;;;;;;;30.78;27.91;100492.40;105580;1287;59392;-84
2023/07/15 10:56:19;;;;;;;;;;;;;;;30.81;27.91;100488.58;105528;1286;61800;-84
2023/07/15 10:59:04;;;;;;;;;;;;;;;30.82;27.86;100483.67;105721;1288;73260;-84
2023/07/15 11:01:50;;;;;;;;;;;;;;;30.81;27.84;100476.57;105672;1286;69990;-84
2023/07/15 11:04:38;;;;;;;;;;;;;;;30.80;27.92;100479.05;105524;1286;74020;-84
2023/07/15 11:07:24;;;;;;;;;;;;;;;30.83;28.15;100478.21;105664;1290;61138;-84
2023/07/15 11:10:11;;;;;;;;;;;;;;;30.90;28.05;100479.27;105527;1286;61497;-84
2023/07/15 11:12:57;;;;;;;;;;;;;;;30.93;28.34;100481.90;105672;1286;73420;-84
2023/07/15 11:15:45;;;;;;;;;;;;;;;30.99;28.29;100481.90;105583;1286;69965;-84
2023/07/15 11:18:31;;;;;;;;;;;;;;;31.02;28.16;100478.02;105352;1285;213839;-84
2023/07/15 11:21:17;;;;;;;;;;;;;;;31.00;28.29;100472.39;105522;1288;61362;-84
2023/07/15 11:24:03;;;;;;;;;;;;;;;30.99;28.34;100470.88;105577;1290;59219;-84
2023/07/15 11:26:50;;;;;;;;;;;;;;;31.00;28.57;100469.35;105560;1286;73427;-84
2023/07/15 11:29:36;;;;;;;;;;;;;;;31.03;28.54;100464.05;105670;1286;67464;-84
2023/07/15 11:32:22;;;;;;;;;;;;;;;31.08;28.65;100468.33;105481;1288;71130;-84
2023/07/15 11:35:12;;;;;;;;;;;;;;;31.13;28.52;100459.98;105412;1289;61349;-84
2023/07/15 11:37:59;;;;;;;;;;;;;;;31.14;28.79;100461.30;105584;1286;61165;-84
2023/07/15 11:40:50;;;;;;;;;;;;;;;31.18;28.74;100460.98;105547;1288;76053;-84
2023/07/15 11:43:36;;;;;;;;;;;;;;;31.23;28.91;100458.30;105500;1286;68655;-84
2023/07/15 11:46:22;;;;;;;;;;;;;;;31.30;28.92;100464.77;105465;1286;71812;-84
2023/07/15 11:49:08;;;;;;;;;;;;;;;31.35;28.85;100461.71;105390;1288;61225;-84
2023/07/15 11:51:56;;;;;;;;;;;;;;;31.37;28.79;100455.94;105457;1286;60795;-84
2023/07/15 11:54:45;;;;;;;;;;;;;;;31.38;28.99;100446.19;105517;1286;73100;-83
2023/07/15 11:57:31;;;;;;;;;;;;;;;31.44;28.97;100443.14;105607;1286;67344;-83
2023/07/15 12:00:27;;;;;;;;;;;;;;;31.47;29.11;100436.86;105590;1286;72972;-83
2023/07/15 12:03:13;;;;;;;;;;;;;;;31.51;29.12;100435.73;105613;1287;59542;-83
2023/07/15 12:05:59;;;;;;;;;;;;;;;31.54;28.86;100434.94;105579;1286;61262;-83
2023/07/15 12:08:58;;;;;;;;;;;;;;;31.57;29.00;100427.66;105639;1287;73311;-83
2023/07/15 12:11:44;;;;;;;;;;;;;;;31.63;28.79;100433.62;105711;1285;67519;-83
2023/07/15 12:14:31;;;;;;;;;;;;;;;31.61;28.95;100431.88;105652;1286;72057;-83
2023/07/15 12:17:17;;;;;;;;;;;;;;;31.62;28.83;100424.93;105529;1287;61121;-83
2023/07/15 12:20:05;;;;;;;;;;;;;;;31.67;29.12;100427.86;105501;1285;59784;-83
2023/07/15 12:22:51;;;;;;;;;;;;;;;31.70;28.62;100422.19;105545;1287;76055;-83
2023/07/15 12:25:38;;;;;;;;;;;;;;;31.69;28.60;100416.25;105679;1286;67611;-83
2023/07/15 12:28:24;;;;;;;;;;;;;;;31.70;28.75;100416.21;105607;1290;72401;-83
2023/07/15 12:31:10;;;;;;;;;;;;;;;31.74;28.80;100412.38;105496;1286;61124;-83
2023/07/15 12:33:56;;;;;;;;;;;;;;;31.79;28.62;100408.64;105527;1288;63107;-83
2023/07/15 12:36:44;;;;;;;;;;;;;;;31.82;28.76;100411.48;105502;1289;74655;-83
2023/07/15 12:39:30;;;;;;;;;;;;;;;31.87;28.68;100411.31;105440;1286;67185;-83
2023/07/15 12:42:16;;;;;;;;;;;;;;;31.96;28.77;100411.45;105416;1287;71196;-83
2023/07/15 12:45:02;;;;;;;;;;;;;;;32.06;28.66;100410.17;105412;1286;61104;-83
2023/07/15 12:47:48;;;;;;;;;;;;;;;32.12;28.55;100410.20;105392;1286;61093;-83
2023/07/15 12:50:34;;;;;;;;;;;;;;;32.19;28.46;100403.51;105425;1286;75017;-83
2023/07/15 12:53:21;;;;;;;;;;;;;;;32.24;28.52;100400.88;105375;1286;68066;-82
2023/07/15 12:56:11;;;;;;;;;;;;;;;32.28;28.18;100401.83;105451;1286;72610;-82
2023/07/15 12:58:57;;;;;;;;;;;;;;;32.30;28.40;100400.92;105406;1288;61282;-82
2023/07/15 13:01:43;;;;;;;;;;;;;;;32.31;28.28;100400.27;105420;1289;61298;-82
2023/07/15 13:04:33;;;;;;;;;;;;;;;32.33;28.24;100401.32;105304;1290;75471;-83
2023/07/15 13:07:21;;;;;;;;;;;;;;;32.29;28.30;100395.80;105374;1288;67250;-83
2023/07/15 13:10:07;;;;;;;;;;;;;;;32.28;28.08;100393.84;105322;1289;71260;-83
2023/07/15 13:12:53;;;;;;;;;;;;;;;32.28;28.43;100395.23;105347;1287;61123;-83
2023/07/15 13:15:46;;;;;;;;;;;;;;;32.29;28.33;100396.27;105386;1288;61057;-83
2023/07/15 13:18:32;;;;;;;;;;;;;;;32.27;28.06;100392.73;105443;1286;75888;-82
2023/07/15 13:21:18;;;;;;;;;;;;;;;32.24;28.11;100392.40;105477;1286;67325;-82
2023/07/15 13:24:04;;;;;;;;;;;;;;;32.25;28.04;100388.58;105402;1288;71155;-82
2023/07/15 13:26:51;;;;;;;;;;;;;;;32.27;27.88;100387.55;105501;1287;59447;-83
2023/07/15 13:29:37;;;;;;;;;;;;;;;32.28;27.83;100387.02;105440;1285;59422;-82
2023/07/15 13:32:23;;;;;;;;;;;;;;;32.35;27.80;100388.23;105504;1286;73398;-82
2023/07/15 13:35:09;;;;;;;;;;;;;;;32.38;27.80;100389.67;105546;1285;67200;-82
2023/07/15 13:37:55;;;;;;;;;;;;;;;32.37;27.70;100383.20;105562;1285;73024;-82
2023/07/15 13:40:41;;;;;;;;;;;;;;;32.37;27.74;100385.62;105484;1286;61237;-82
2023/07/15 13:43:27;;;;;;;;;;;;;;;32.42;27.55;100384.38;105447;1285;61179;-82
2023/07/15 13:46:13;;;;;;;;;;;;;;;32.45;27.59;100382.95;105253;1289;73180;-82
2023/07/15 13:48:59;;;;;;;;;;;;;;;32.44;27.86;100382.06;105331;1288;67207;-82
2023/07/15 13:51:45;;;;;;;;;;;;;;;32.44;27.60;100381.12;105451;1286;73956;-82
2023/07/15 13:54:31;;;;;;;;;;;;;;;32.44;27.57;100374.50;105471;1288;61369;-82
2023/07/15 13:57:17;;;;;;;;;;;;;;;32.45;27.47;100371.21;105466;1285;61159;-82
2023/07/15 14:00:04;;;;;;;;;;;;;;;32.46;27.75;100371.62;105342;1287;73334;-82
2023/07/15 14:02:51;;;;;;;;;;;;;;;32.48;27.60;100371.54;105423;1288;67229;-82
2023/07/15 14:05:37;;;;;;;;;;;;;;;32.50;27.68;100367.72;105410;1287;73978;-82